createdAt,value
2022-08-19T00:01:37.939Z,16.98
2022-08-19T00:04:10.138Z,17.33
2022-08-19T00:06:39.540Z,16.52
2022-08-19T00:09:09.790Z,16.95
2022-08-19T00:11:38.436Z,16.50
2022-08-19T00:14:10.736Z,16.75
2022-08-19T00:16:39.604Z,17.75
2022-08-19T00:19:06.751Z,17.65
2022-08-19T00:21:33.287Z,17.50
2022-08-19T00:24:00.491Z,17.88
2022-08-19T00:26:29.274Z,17.33
2022-08-19T00:28:56.380Z,18.13
2022-08-19T00:31:23.288Z,17.10
2022-08-19T00:33:52.343Z,17.77
2022-08-19T00:36:18.836Z,18.10
2022-08-19T00:38:45.511Z,18.05
2022-08-19T00:41:18.943Z,18.55
2022-08-19T00:44:07.736Z,17.90
2022-08-19T00:46:37.554Z,18.20
2022-08-19T00:49:10.714Z,18.73
2022-08-19T00:51:37.726Z,19.02
2022-08-19T00:54:04.672Z,17.33
2022-08-19T00:56:32.144Z,19.73
2022-08-19T00:59:00.391Z,18.58
2022-08-19T01:01:27.297Z,20.08
2022-08-19T01:03:56.784Z,19.88
2022-08-19T01:06:25.213Z,19.45
2022-08-19T01:08:51.992Z,19.70
2022-08-19T01:11:18.615Z,21.52
2022-08-19T01:13:49.783Z,21.33
2022-08-19T01:16:18.587Z,22.30
2022-08-19T01:18:45.367Z,22.00
2022-08-19T01:21:22.813Z,20.90
2022-08-19T01:23:49.479Z,21.25
2022-08-19T01:26:20.048Z,20.95
2022-08-19T01:28:48.675Z,20.57
2022-08-19T01:34:01.547Z,18.55
2022-08-19T01:36:32.606Z,18.65
2022-08-19T01:39:00.709Z,19.95
2022-08-19T01:41:27.490Z,22.05
2022-08-19T01:44:13.886Z,22.08
2022-08-19T01:46:41.835Z,22.02
2022-08-19T01:49:08.934Z,21.63
2022-08-19T01:51:39.929Z,21.45
2022-08-19T01:54:07.823Z,22.33
2022-08-19T01:56:34.333Z,23.77
2022-08-19T01:59:04.409Z,23.88
2022-08-19T02:01:35.722Z,22.17
2022-08-19T02:04:03.061Z,22.73
2022-08-19T02:06:29.938Z,22.58
2022-08-19T02:08:57.336Z,22.65
2022-08-19T02:11:32.196Z,22.95
2022-08-19T02:13:59.917Z,22.85
2022-08-19T02:16:26.505Z,23.35
2022-08-19T02:18:53.009Z,23.33
2022-08-19T02:21:22.591Z,23.38
2022-08-19T02:23:50.097Z,24.33
2022-08-19T02:26:17.758Z,23.17
2022-08-19T02:28:44.432Z,22.25
2022-08-19T02:31:13.008Z,23.60
2022-08-19T02:33:40.001Z,22.35
2022-08-19T02:36:07.886Z,24.13
2022-08-19T02:38:34.440Z,22.85
2022-08-19T02:41:04.316Z,22.25
2022-08-19T02:43:33.781Z,23.75
2022-08-19T02:46:01.382Z,24.25
2022-08-19T02:48:27.871Z,24.52
2022-08-19T02:50:56.363Z,24.38
2022-08-19T02:53:25.686Z,23.05
2022-08-19T02:55:52.916Z,22.40
2022-08-19T02:58:20.779Z,23.17
2022-08-19T03:00:50.387Z,21.67
2022-08-19T03:03:17.761Z,23.20
2022-08-19T03:05:47.118Z,23.30
2022-08-19T03:08:22.892Z,22.63
2022-08-19T03:10:49.477Z,22.33
2022-08-19T03:13:18.526Z,22.25
2022-08-19T03:15:48.304Z,23.05
2022-08-19T03:18:15.618Z,24.05
2022-08-19T03:20:50.475Z,22.13
2022-08-19T03:23:17.711Z,23.17
2022-08-19T03:25:47.556Z,22.38
2022-08-19T03:28:29.371Z,21.42
2022-08-19T03:31:45.110Z,23.35
2022-08-19T03:33:56.125Z,22.38
2022-08-19T03:36:26.782Z,22.52
2022-08-19T03:39:00.129Z,23.58
2022-08-19T03:41:34.375Z,21.45
2022-08-19T03:44:18.019Z,24.10
2022-08-19T03:46:46.511Z,23.58
2022-08-19T03:49:14.372Z,24.48
2022-08-19T03:51:42.588Z,24.08
2022-08-19T03:54:11.444Z,23.70
2022-08-19T03:56:39.432Z,22.67
2022-08-19T03:59:08.407Z,23.98
2022-08-19T04:01:36.240Z,23.23
2022-08-19T04:04:04.859Z,24.20
2022-08-19T04:06:39.655Z,23.75
2022-08-19T04:09:09.551Z,23.95
2022-08-19T04:11:44.570Z,24.27
2022-08-19T04:14:14.947Z,24.27
2022-08-19T04:16:42.097Z,23.58
2022-08-19T04:19:08.820Z,23.45
2022-08-19T04:21:35.778Z,24.63
2022-08-19T04:24:03.832Z,25.25
2022-08-19T04:26:34.865Z,24.38
2022-08-19T04:29:09.183Z,23.13
2022-08-19T04:31:38.462Z,23.83
2022-08-19T04:34:07.603Z,24.13
2022-08-19T04:36:36.903Z,24.17
2022-08-19T04:39:08.449Z,24.77
2022-08-19T04:44:20.413Z,24.27
2022-08-19T04:46:51.010Z,23.75
2022-08-19T04:49:23.140Z,24.33
2022-08-19T04:51:52.186Z,24.42
2022-08-19T04:54:37.080Z,24.85
2022-08-19T04:57:07.438Z,24.83
2022-08-19T04:59:34.453Z,25.42
2022-08-19T05:02:00.990Z,25.25
2022-08-19T05:04:29.037Z,25.98
2022-08-19T05:07:00.070Z,27.75
2022-08-19T05:09:55.534Z,27.92
2022-08-19T05:12:16.422Z,29.50
2022-08-19T05:14:42.911Z,29.45
2022-08-19T05:17:26.529Z,29.13
2022-08-19T05:20:26.501Z,30.35
2022-08-19T05:22:53.339Z,31.50
2022-08-19T05:25:21.423Z,32.75
2022-08-19T05:27:48.595Z,34.38
2022-08-19T05:30:15.887Z,35.80
2022-08-19T05:32:42.625Z,36.20
2022-08-19T05:35:10.404Z,36.63
2022-08-19T05:37:37.050Z,37.85
2022-08-19T05:40:04.356Z,38.20
2022-08-19T05:42:31.465Z,37.25
2022-08-19T05:44:59.026Z,37.58
2022-08-19T05:47:25.618Z,38.10
2022-08-19T05:49:52.417Z,39.70
2022-08-19T05:52:25.751Z,38.20
2022-08-19T05:54:55.752Z,38.85
2022-08-19T05:57:22.864Z,41.15
2022-08-19T05:59:53.029Z,39.65
2022-08-19T06:02:28.906Z,40.53
2022-08-19T06:04:55.451Z,41.80
2022-08-19T06:07:22.019Z,42.47
2022-08-19T06:10:00.468Z,42.60
2022-08-19T06:12:35.543Z,43.35
2022-08-19T06:15:07.970Z,43.60
2022-08-19T06:17:35.980Z,43.13
2022-08-19T06:20:05.630Z,43.83
2022-08-19T06:22:32.163Z,43.42
2022-08-19T06:24:58.785Z,43.58
2022-08-19T06:27:25.430Z,43.33
2022-08-19T06:29:51.948Z,42.55
2022-08-19T06:32:19.894Z,42.55
2022-08-19T06:34:46.574Z,41.45
2022-08-19T06:37:13.151Z,41.75
2022-08-19T06:39:41.982Z,42.53
2022-08-19T06:42:12.205Z,41.47
2022-08-19T06:44:43.269Z,42.85
2022-08-19T06:47:14.556Z,43.20
2022-08-19T06:49:49.996Z,42.92
2022-08-19T06:52:16.878Z,41.90
2022-08-19T06:54:53.708Z,43.47
2022-08-19T06:57:25.119Z,42.80
2022-08-19T06:59:52.188Z,42.95
2022-08-19T07:02:19.426Z,42.80
2022-08-19T07:04:46.844Z,43.28
2022-08-19T07:07:20.317Z,42.92
2022-08-19T07:10:00.042Z,43.63
2022-08-19T07:12:32.263Z,44.38
2022-08-19T07:14:59.060Z,46.17
2022-08-19T07:17:26.820Z,47.63
2022-08-19T07:19:54.146Z,48.20
2022-08-19T07:22:23.762Z,50.67
2022-08-19T07:24:52.135Z,49.13
2022-08-19T07:27:22.523Z,48.78
2022-08-19T07:29:57.314Z,49.10
2022-08-19T07:32:28.181Z,47.53
2022-08-19T07:34:56.361Z,46.50
2022-08-19T07:37:24.255Z,45.72
2022-08-19T07:39:50.840Z,46.28
2022-08-19T07:42:18.911Z,46.45
2022-08-19T07:44:50.330Z,46.65
2022-08-19T07:47:49.170Z,44.90
2022-08-19T07:50:07.755Z,44.15
2022-08-19T07:52:36.767Z,45.45
2022-08-19T07:55:05.268Z,44.88
2022-08-19T07:57:31.899Z,44.97
2022-08-19T07:59:58.478Z,43.97
2022-08-19T08:02:25.044Z,42.67
2022-08-19T08:05:10.482Z,42.78
2022-08-19T08:07:55.764Z,43.28
2022-08-19T08:10:24.225Z,43.30
2022-08-19T08:13:09.844Z,42.08
2022-08-19T08:15:42.582Z,46.00
2022-08-19T08:18:11.509Z,44.88
2022-08-19T08:20:39.171Z,46.35
2022-08-19T08:23:25.692Z,45.55
2022-08-19T08:25:57.933Z,45.08
2022-08-19T08:28:26.164Z,45.92
2022-08-19T08:30:56.529Z,48.33
2022-08-19T08:33:32.671Z,46.20
2022-08-19T08:35:59.952Z,45.40
2022-08-19T08:38:26.546Z,43.40
2022-08-19T08:41:07.547Z,41.72
2022-08-19T08:43:42.877Z,40.83
2022-08-19T08:46:16.238Z,38.83
2022-08-19T08:49:09.802Z,39.22
2022-08-19T08:51:59.793Z,38.50
2022-08-19T08:54:32.902Z,38.17
2022-08-19T08:57:03.281Z,36.50
2022-08-19T08:59:34.507Z,37.58
2022-08-19T09:02:01.412Z,38.45
2022-08-19T09:04:28.756Z,38.10
2022-08-19T09:07:35.396Z,38.53
2022-08-19T09:10:22.944Z,38.25
2022-08-19T09:13:16.799Z,41.35
2022-08-19T09:15:52.157Z,41.95
2022-08-19T09:18:19.643Z,41.92
2022-08-19T09:20:50.288Z,44.60
2022-08-19T09:23:16.876Z,45.00
2022-08-19T09:25:43.426Z,46.85
2022-08-19T09:28:15.166Z,44.33
2022-08-19T09:30:49.347Z,45.08
2022-08-19T09:33:17.025Z,45.15
2022-08-19T09:35:49.528Z,45.03
2022-08-19T09:38:19.571Z,42.97
2022-08-19T09:40:46.102Z,43.85
2022-08-19T09:43:13.469Z,45.00
2022-08-19T09:45:40.869Z,43.65
2022-08-19T09:48:07.446Z,44.92
2022-08-19T09:50:39.386Z,44.50
2022-08-19T09:53:19.357Z,44.70
2022-08-19T09:55:45.975Z,45.35
2022-08-19T09:58:12.877Z,43.50
2022-08-19T10:00:39.483Z,43.92
2022-08-19T10:03:05.988Z,42.67
2022-08-19T10:05:54.611Z,44.83
2022-08-19T10:08:29.019Z,42.38
2022-08-19T10:10:57.000Z,41.63
2022-08-19T10:13:29.349Z,42.78
2022-08-19T10:15:58.131Z,43.05
2022-08-19T10:18:26.119Z,43.45
2022-08-19T10:20:54.461Z,42.25
2022-08-19T10:23:21.995Z,41.63
2022-08-19T10:25:50.497Z,36.08
2022-08-19T10:28:19.509Z,36.60
2022-08-19T10:30:47.219Z,34.97
2022-08-19T10:33:14.885Z,36.47
2022-08-19T10:35:42.525Z,36.72
2022-08-19T10:38:22.903Z,37.92
2022-08-19T10:40:59.024Z,38.75
2022-08-19T10:43:25.852Z,40.35
2022-08-19T10:46:00.225Z,38.05
2022-08-19T10:48:26.812Z,38.88
2022-08-19T10:51:12.403Z,39.20
2022-08-19T10:53:50.480Z,39.28
2022-08-19T10:56:36.367Z,39.35
2022-08-19T10:59:04.232Z,39.15
2022-08-19T11:01:34.003Z,38.72
2022-08-19T11:04:02.739Z,39.35
2022-08-19T11:06:30.240Z,39.83
2022-08-19T11:08:57.528Z,37.85
2022-08-19T11:11:24.059Z,38.33
2022-08-19T11:13:51.006Z,38.75
2022-08-19T11:16:23.216Z,38.58
2022-08-19T11:18:52.589Z,38.70
2022-08-19T11:21:28.553Z,37.03
2022-08-19T11:23:58.132Z,35.95
2022-08-19T11:26:25.888Z,37.25
2022-08-19T11:28:55.015Z,36.33
2022-08-19T11:31:24.880Z,37.85
2022-08-19T11:33:58.304Z,36.75
2022-08-19T11:36:24.852Z,35.85
2022-08-19T11:38:51.703Z,34.92
2022-08-19T11:41:20.341Z,33.92
2022-08-19T11:43:47.135Z,35.35
2022-08-19T11:46:16.354Z,33.35
2022-08-19T11:48:43.555Z,31.80
2022-08-19T11:51:13.909Z,32.35
2022-08-19T11:53:40.789Z,31.98
2022-08-19T11:56:08.585Z,29.63
2022-08-19T11:58:36.023Z,25.38
2022-08-19T12:01:05.948Z,25.90
2022-08-19T12:03:32.502Z,26.33
2022-08-19T12:05:59.069Z,27.27
2022-08-19T12:08:25.560Z,28.13
2022-08-19T12:10:52.062Z,27.20
2022-08-19T12:13:19.352Z,29.45
2022-08-19T12:15:48.417Z,27.33
2022-08-19T12:18:15.309Z,27.77
2022-08-19T12:20:43.392Z,27.77
2022-08-19T12:23:10.795Z,28.17
2022-08-19T12:25:38.694Z,27.10
2022-08-19T12:28:05.263Z,28.45
2022-08-19T12:30:31.830Z,29.00
2022-08-19T12:32:58.367Z,28.02
2022-08-19T12:35:24.874Z,28.00
2022-08-19T12:37:56.775Z,29.33
2022-08-19T12:40:26.527Z,29.65
2022-08-19T12:42:54.248Z,27.27
2022-08-19T12:45:20.915Z,28.77
2022-08-19T12:47:47.731Z,30.67
2022-08-19T12:50:16.490Z,29.02
2022-08-19T12:52:43.365Z,29.67
2022-08-19T12:55:11.996Z,30.02
2022-08-19T12:57:39.042Z,30.05
2022-08-19T13:00:14.605Z,27.88
2022-08-19T13:02:45.353Z,29.45
2022-08-19T13:05:16.847Z,29.80
2022-08-19T13:07:44.795Z,31.50
2022-08-19T13:10:16.240Z,29.95
2022-08-19T13:15:11.638Z,31.27
2022-08-19T13:17:39.551Z,32.58
2022-08-19T13:20:09.007Z,33.05
2022-08-19T13:22:36.895Z,32.28
2022-08-19T13:25:05.057Z,32.22
2022-08-19T13:27:31.659Z,32.58
2022-08-19T13:30:16.772Z,32.92
2022-08-19T13:33:01.819Z,33.80
2022-08-19T13:35:28.362Z,33.22
2022-08-19T13:37:54.978Z,34.00
2022-08-19T13:40:24.845Z,35.47
2022-08-19T13:42:55.423Z,34.13
2022-08-19T13:45:25.137Z,33.83
2022-08-19T13:47:59.160Z,33.53
2022-08-19T13:50:32.253Z,32.05
2022-08-19T13:52:59.420Z,31.58
2022-08-19T13:55:27.697Z,32.13
2022-08-19T13:57:57.407Z,30.33
2022-08-19T14:00:27.089Z,30.67
2022-08-19T14:02:56.696Z,31.15
2022-08-19T14:05:24.050Z,28.83
2022-08-19T14:07:50.633Z,29.00
2022-08-19T14:10:18.080Z,29.25
2022-08-19T14:12:44.643Z,27.10
2022-08-19T14:15:12.642Z,27.25
2022-08-19T14:17:40.776Z,26.15
2022-08-19T14:20:10.430Z,24.48
2022-08-19T14:22:40.565Z,23.88
2022-08-19T14:25:09.821Z,20.88
2022-08-19T14:27:38.065Z,21.40
2022-08-19T14:30:06.313Z,20.17
2022-08-19T14:32:32.850Z,18.17
2022-08-19T14:34:59.500Z,19.83
2022-08-19T14:37:26.248Z,18.38
2022-08-19T14:39:55.139Z,17.73
2022-08-19T14:42:21.727Z,18.27
2022-08-19T14:44:48.215Z,18.83
2022-08-19T14:47:15.043Z,18.60
2022-08-19T14:49:43.938Z,18.77
2022-08-19T14:52:14.897Z,19.55
2022-08-19T14:54:41.404Z,18.95
2022-08-19T14:57:08.184Z,17.90
2022-08-19T14:59:35.828Z,17.90
2022-08-19T15:02:33.433Z,18.23
2022-08-19T15:04:58.512Z,17.65
2022-08-19T15:07:28.290Z,16.70
2022-08-19T15:09:56.912Z,16.98
2022-08-19T15:12:23.472Z,16.58
2022-08-19T15:14:51.863Z,14.73
2022-08-19T15:17:21.819Z,17.23
2022-08-19T15:19:48.342Z,16.27
2022-08-19T15:22:15.155Z,17.15
2022-08-19T15:24:48.123Z,17.63
2022-08-19T15:27:14.821Z,16.00
2022-08-19T15:29:43.751Z,14.00
2022-08-19T15:32:10.287Z,13.50
2022-08-19T15:34:36.825Z,12.73
2022-08-19T15:37:06.100Z,10.48
2022-08-19T15:39:33.171Z,10.00
2022-08-19T15:42:00.628Z,12.27
2022-08-19T15:44:27.858Z,18.25
2022-08-19T15:46:54.437Z,18.50
2022-08-19T15:49:21.872Z,10.77
2022-08-19T15:51:51.905Z,12.45
2022-08-19T15:54:21.705Z,12.30
2022-08-19T15:57:07.935Z,12.75
2022-08-19T15:59:54.276Z,13.68
2022-08-19T16:02:42.300Z,14.07
2022-08-19T16:05:29.763Z,13.88
2022-08-19T16:07:56.963Z,14.07
2022-08-19T16:10:26.344Z,14.18
2022-08-19T16:12:55.352Z,15.70
2022-08-19T16:15:21.983Z,15.02
2022-08-19T16:17:55.418Z,14.75
2022-08-19T16:20:27.335Z,14.93
2022-08-19T16:22:54.345Z,14.85
2022-08-19T16:25:26.488Z,16.35
2022-08-19T16:28:06.226Z,15.35
2022-08-19T16:30:35.305Z,15.77
2022-08-19T16:33:01.806Z,15.27
2022-08-19T16:35:28.384Z,15.10
2022-08-19T16:37:55.003Z,16.17
2022-08-19T16:40:22.564Z,15.55
2022-08-19T16:42:49.477Z,16.05
2022-08-19T16:45:19.437Z,15.43
2022-08-19T16:47:45.967Z,16.35
2022-08-19T16:50:12.566Z,16.13
2022-08-19T16:52:39.065Z,16.05
2022-08-19T16:55:07.434Z,16.65
2022-08-19T16:57:35.550Z,17.55
2022-08-19T17:00:08.980Z,17.08
2022-08-19T17:02:36.688Z,16.50
2022-08-19T17:05:03.323Z,16.45
2022-08-19T17:07:33.103Z,16.33
2022-08-19T17:10:01.229Z,16.40
2022-08-19T17:12:32.200Z,16.75
2022-08-19T17:15:00.673Z,16.25
2022-08-19T17:17:29.363Z,16.40
2022-08-19T17:19:56.457Z,16.65
2022-08-19T17:22:23.741Z,17.15
2022-08-19T17:24:50.252Z,17.23
2022-08-19T17:27:16.763Z,16.95
2022-08-19T17:29:46.860Z,15.90
2022-08-19T17:32:13.886Z,16.20
2022-08-19T17:34:40.383Z,14.65
2022-08-19T17:37:06.890Z,15.27
2022-08-19T17:39:39.513Z,14.18
2022-08-19T17:42:06.756Z,14.07
2022-08-19T17:44:36.450Z,13.48
2022-08-19T17:47:04.156Z,13.32
2022-08-19T17:49:30.671Z,12.73
2022-08-19T17:52:00.471Z,12.95
2022-08-19T17:54:33.348Z,12.25
2022-08-19T17:57:01.245Z,12.50
2022-08-19T17:59:29.921Z,12.13
2022-08-19T18:01:57.169Z,12.20
2022-08-19T18:04:25.850Z,12.75
2022-08-19T18:06:55.019Z,13.07
2022-08-19T18:09:27.275Z,12.20
2022-08-19T18:11:56.852Z,12.15
2022-08-19T18:14:32.829Z,12.20
2022-08-19T18:17:05.864Z,12.05
2022-08-19T18:19:42.252Z,11.68
2022-08-19T18:22:11.589Z,11.73
2022-08-19T18:24:42.292Z,12.45
2022-08-19T18:27:09.836Z,12.05
2022-08-19T18:29:37.930Z,12.02
2022-08-19T18:32:04.674Z,11.25
2022-08-19T18:34:31.174Z,11.45
2022-08-19T18:36:57.683Z,11.57
2022-08-19T18:39:45.085Z,10.70
2022-08-19T18:42:37.012Z,10.65
2022-08-19T18:45:23.797Z,10.05
2022-08-19T18:48:26.933Z,10.82
2022-08-19T18:50:59.779Z,10.15
2022-08-19T18:53:28.679Z,9.85
2022-08-19T18:55:55.798Z,10.35
2022-08-19T18:58:26.634Z,9.75
2022-08-19T19:00:56.769Z,9.52
2022-08-19T19:03:24.345Z,10.38
2022-08-19T19:05:52.138Z,10.50
2022-08-19T19:08:18.765Z,10.40
2022-08-19T19:10:45.385Z,11.20
2022-08-19T19:13:16.319Z,10.13
2022-08-19T19:15:43.899Z,11.00
2022-08-19T19:18:13.451Z,10.52
2022-08-19T19:20:40.884Z,11.20
2022-08-19T19:23:07.635Z,11.02
2022-08-19T19:25:49.928Z,10.38
2022-08-19T19:28:17.423Z,10.98
2022-08-19T19:30:43.964Z,11.18
2022-08-19T19:33:10.812Z,10.80
2022-08-19T19:35:37.317Z,10.77
2022-08-19T19:38:03.874Z,11.30
2022-08-19T19:40:30.458Z,10.93
2022-08-19T19:42:57.077Z,10.77
2022-08-19T19:45:24.785Z,10.57
2022-08-19T19:47:51.322Z,10.52
2022-08-19T19:50:19.395Z,10.50
2022-08-19T19:52:46.622Z,11.18
2022-08-19T19:55:17.885Z,10.70
2022-08-19T19:57:48.871Z,11.20
2022-08-19T20:00:18.643Z,10.65
2022-08-19T20:02:49.612Z,10.50
2022-08-19T20:05:16.966Z,10.07
2022-08-19T20:08:02.023Z,10.70
2022-08-19T20:10:28.538Z,10.95
2022-08-19T20:12:56.684Z,10.80
2022-08-19T20:15:24.064Z,10.00
2022-08-19T20:17:51.025Z,10.30
2022-08-19T20:20:19.159Z,10.02
2022-08-19T20:22:47.496Z,10.45
2022-08-19T20:25:16.987Z,10.77
2022-08-19T20:27:44.050Z,10.65
2022-08-19T20:30:19.318Z,10.27
2022-08-19T20:32:47.620Z,9.63
2022-08-19T20:35:19.701Z,10.50
2022-08-19T20:37:46.558Z,10.45
2022-08-19T20:40:14.510Z,10.20
2022-08-19T20:42:43.213Z,10.07
2022-08-19T20:45:29.449Z,9.52
2022-08-19T20:48:02.653Z,10.40
2022-08-19T20:50:30.350Z,11.40
2022-08-19T20:52:57.821Z,10.75
2022-08-19T20:55:25.792Z,9.93
2022-08-19T20:57:52.299Z,10.13
2022-08-19T21:00:19.120Z,10.70
2022-08-19T21:02:46.796Z,10.20
2022-08-19T21:05:14.835Z,10.80
2022-08-19T21:07:41.547Z,10.25
2022-08-19T21:10:08.363Z,10.30
2022-08-19T21:12:35.008Z,10.38
2022-08-19T21:15:01.592Z,10.27
2022-08-19T21:17:28.092Z,9.90
2022-08-19T21:19:54.618Z,10.45
2022-08-19T21:22:21.196Z,10.32
2022-08-19T21:24:47.867Z,10.98
2022-08-19T21:27:14.367Z,10.95
2022-08-19T21:29:42.056Z,10.00
2022-08-19T21:32:11.112Z,11.10
2022-08-19T21:34:41.641Z,11.18
2022-08-19T21:37:14.002Z,10.60
2022-08-19T21:39:53.483Z,10.57
2022-08-19T21:42:20.920Z,10.38
2022-08-19T21:44:47.547Z,10.55
2022-08-19T21:47:14.052Z,10.32
2022-08-19T21:49:40.686Z,10.68
2022-08-19T21:52:08.152Z,10.40
2022-08-19T21:54:38.250Z,10.45
2022-08-19T21:57:10.263Z,10.60
2022-08-19T21:59:39.794Z,10.90
2022-08-19T22:02:19.565Z,10.60
2022-08-19T22:04:48.449Z,9.73
2022-08-19T22:07:15.499Z,10.70
2022-08-19T22:09:42.905Z,9.88
2022-08-19T22:12:20.909Z,10.38
2022-08-19T22:14:47.419Z,9.65
2022-08-19T22:17:14.584Z,9.38
2022-08-19T22:19:41.277Z,9.77
2022-08-19T22:22:08.165Z,9.40
2022-08-19T22:24:34.688Z,9.40
2022-08-19T22:27:02.311Z,9.52
2022-08-19T22:29:34.138Z,9.50
2022-08-19T22:32:01.504Z,9.27
2022-08-19T22:34:48.022Z,9.32
2022-08-19T22:37:14.525Z,9.20
2022-08-19T22:39:41.121Z,8.93
2022-08-19T22:42:07.726Z,9.18
2022-08-19T22:44:34.240Z,9.05
2022-08-19T22:47:02.165Z,8.95
2022-08-19T22:49:28.726Z,9.20
2022-08-19T22:52:13.772Z,9.65
2022-08-19T22:54:40.305Z,9.45
2022-08-19T22:57:06.807Z,9.43
2022-08-19T22:59:33.317Z,9.32
2022-08-19T23:01:59.842Z,8.95
2022-08-19T23:04:26.464Z,9.30
2022-08-19T23:06:53.275Z,9.05
2022-08-19T23:09:19.929Z,9.98
2022-08-19T23:11:50.065Z,10.20
2022-08-19T23:14:18.830Z,10.00
2022-08-19T23:16:50.756Z,10.13
2022-08-19T23:19:19.082Z,9.45
2022-08-19T23:21:45.583Z,9.23
2022-08-19T23:24:12.137Z,10.07
2022-08-19T23:26:59.366Z,9.68
2022-08-19T23:29:44.147Z,10.73
2022-08-19T23:32:10.653Z,10.45
2022-08-19T23:34:37.550Z,10.32
2022-08-19T23:37:04.100Z,10.43
2022-08-19T23:39:31.086Z,10.38
2022-08-19T23:41:57.571Z,11.30
2022-08-19T23:44:24.661Z,10.13
2022-08-19T23:46:55.114Z,11.23
2022-08-19T23:49:23.058Z,11.15
2022-08-19T23:51:49.620Z,11.52
2022-08-19T23:54:16.128Z,11.18
2022-08-19T23:56:42.677Z,11.60
2022-08-19T23:59:09.187Z,11.85
